createdAt,value
2018-06-05T00:00:58.555Z,17.30
2018-06-05T00:03:26.316Z,17.30
2018-06-05T00:05:54.652Z,17.20
2018-06-05T00:08:22.722Z,17.20
2018-06-05T00:10:51.018Z,17.20
2018-06-05T00:13:19.695Z,17.10
2018-06-05T00:15:47.479Z,17.10
2018-06-05T00:18:15.272Z,17.00
2018-06-05T00:20:43.799Z,17.00
2018-06-05T00:23:11.683Z,16.90
2018-06-05T00:25:39.587Z,17.00
2018-06-05T00:28:07.367Z,16.90
2018-06-05T00:30:35.462Z,16.90
2018-06-05T00:33:04.505Z,17.00
2018-06-05T00:35:33.215Z,17.00
2018-06-05T00:38:01.582Z,17.00
2018-06-05T00:40:29.505Z,17.00
2018-06-05T00:42:57.269Z,16.90
2018-06-05T00:45:25.054Z,16.90
2018-06-05T00:47:52.844Z,16.80
2018-06-05T00:50:20.617Z,16.80
2018-06-05T00:52:48.501Z,16.80
2018-06-05T00:55:16.383Z,16.80
2018-06-05T00:57:44.467Z,16.70
2018-06-05T01:00:12.273Z,16.70
2018-06-05T01:02:40.094Z,16.70
2018-06-05T01:05:08.509Z,16.70
2018-06-05T01:07:37.735Z,16.60
2018-06-05T01:10:05.614Z,16.70
2018-06-05T01:12:33.426Z,16.70
2018-06-05T01:15:01.245Z,16.70
2018-06-05T01:17:29.038Z,16.80
2018-06-05T01:19:57.738Z,16.90
2018-06-05T01:22:25.753Z,16.90
2018-06-05T01:24:53.598Z,17.00
2018-06-05T01:27:21.645Z,17.00
2018-06-05T01:29:49.427Z,17.00
2018-06-05T01:32:17.235Z,17.00
2018-06-05T01:34:45.052Z,17.10
2018-06-05T01:37:12.839Z,17.10
2018-06-05T01:39:41.968Z,17.20
2018-06-05T01:42:09.781Z,17.20
2018-06-05T01:44:37.691Z,17.10
2018-06-05T01:47:06.044Z,17.10
2018-06-05T01:49:40.043Z,17.20
2018-06-05T01:52:08.157Z,17.20
2018-06-05T01:54:36.168Z,17.20
2018-06-05T01:57:04.054Z,17.30
2018-06-05T01:59:32.560Z,17.30
2018-06-05T02:02:00.484Z,17.20
2018-06-05T02:04:28.398Z,17.20
2018-06-05T02:06:57.202Z,17.20
2018-06-05T02:09:25.247Z,17.30
2018-06-05T02:11:53.203Z,17.30
2018-06-05T02:14:21.031Z,17.30
2018-06-05T02:16:48.835Z,17.30
2018-06-05T02:19:17.445Z,17.20
2018-06-05T02:21:45.577Z,17.20
2018-06-05T02:24:14.065Z,17.30
2018-06-05T02:26:43.071Z,17.30
2018-06-05T02:29:11.243Z,17.30
2018-06-05T02:31:39.040Z,17.30
2018-06-05T02:34:07.301Z,17.40
2018-06-05T02:36:35.180Z,17.40
2018-06-05T02:39:04.199Z,17.40
2018-06-05T02:41:33.032Z,17.30
2018-06-05T02:44:01.128Z,17.30
2018-06-05T02:46:29.478Z,17.30
2018-06-05T02:48:57.286Z,17.30
2018-06-05T02:51:25.237Z,17.40
2018-06-05T02:53:53.098Z,17.30
2018-06-05T02:56:21.049Z,17.30
2018-06-05T02:58:49.517Z,17.30
2018-06-05T03:01:17.437Z,17.30
2018-06-05T03:03:46.132Z,17.30
2018-06-05T03:06:13.953Z,17.40
2018-06-05T03:08:41.923Z,17.50
2018-06-05T03:11:10.063Z,17.40
2018-06-05T03:13:37.900Z,17.40
2018-06-05T03:16:05.753Z,17.40
2018-06-05T03:18:33.567Z,17.40
2018-06-05T03:21:01.502Z,17.40
2018-06-05T03:23:29.343Z,17.40
2018-06-05T03:25:57.857Z,17.40
2018-06-05T03:28:25.650Z,17.40
2018-06-05T03:30:54.131Z,17.30
2018-06-05T03:33:21.830Z,17.30
2018-06-05T03:35:49.567Z,17.30
2018-06-05T03:38:17.698Z,17.30
2018-06-05T03:40:45.788Z,17.40
2018-06-05T03:45:48.265Z,17.40
2018-06-05T03:48:16.587Z,17.40
2018-06-05T03:50:44.738Z,17.40
2018-06-05T03:53:13.508Z,17.40
2018-06-05T03:55:41.408Z,17.40
2018-06-05T03:58:09.189Z,17.40
2018-06-05T04:00:36.981Z,17.40
2018-06-05T04:12:49.886Z,17.50
2018-06-05T04:15:18.278Z,17.60
2018-06-05T04:17:46.198Z,17.60
2018-06-05T04:20:14.087Z,17.50
2018-06-05T04:22:42.820Z,17.50
2018-06-05T04:34:56.000Z,17.50
2018-06-05T04:37:23.869Z,17.50
2018-06-05T04:39:51.884Z,17.60
2018-06-05T04:42:19.729Z,17.60
2018-06-05T04:44:48.561Z,17.60
2018-06-05T04:47:16.402Z,17.70
2018-06-05T04:49:44.183Z,17.60
2018-06-05T04:52:11.891Z,17.70
2018-06-05T04:54:39.647Z,17.70
2018-06-05T04:57:07.379Z,17.80
2018-06-05T04:59:35.110Z,17.70
2018-06-05T05:02:02.854Z,17.60
2018-06-05T05:04:30.613Z,17.70
2018-06-05T05:06:58.312Z,17.60
2018-06-05T05:09:26.025Z,17.70
2018-06-05T05:11:53.755Z,17.70
2018-06-05T05:14:21.480Z,17.70
2018-06-05T05:16:49.264Z,17.70
2018-06-05T05:19:16.968Z,17.70
2018-06-05T05:21:44.676Z,17.80
2018-06-05T05:24:12.348Z,17.70
2018-06-05T05:26:40.156Z,17.70
2018-06-05T05:31:35.486Z,17.70
2018-06-05T05:34:04.064Z,17.80
2018-06-05T05:36:31.808Z,17.80
2018-06-05T05:38:59.558Z,17.80
2018-06-05T05:41:27.443Z,17.80
2018-06-05T05:43:55.230Z,17.70
2018-06-05T05:48:50.451Z,17.80
2018-06-05T05:51:18.151Z,17.90
2018-06-05T05:53:45.813Z,17.90
2018-06-05T05:56:13.498Z,18.00
2018-06-05T05:58:41.242Z,18.00
2018-06-05T06:01:09.686Z,18.10
2018-06-05T06:03:37.354Z,18.10
2018-06-05T06:06:05.046Z,18.00
2018-06-05T06:08:32.699Z,18.10
2018-06-05T06:11:00.391Z,18.10
2018-06-05T06:13:28.047Z,18.10
2018-06-05T06:15:55.760Z,18.00
2018-06-05T06:18:23.461Z,18.10
2018-06-05T06:20:51.114Z,18.20
2018-06-05T06:23:18.769Z,18.20
2018-06-05T06:25:46.510Z,18.10
2018-06-05T06:28:14.190Z,18.20
2018-06-05T06:30:41.892Z,18.20
2018-06-05T06:33:09.607Z,18.20
2018-06-05T06:35:37.238Z,18.30
2018-06-05T06:38:04.898Z,18.20
2018-06-05T06:40:32.602Z,18.20
2018-06-05T06:43:00.316Z,18.10
2018-06-05T06:45:31.297Z,18.10
2018-06-05T06:47:58.990Z,18.20
2018-06-05T06:50:26.661Z,18.20
2018-06-05T06:52:54.364Z,18.00
2018-06-05T06:55:22.048Z,18.10
2018-06-05T06:57:49.715Z,18.00
2018-06-05T07:00:17.368Z,18.00
2018-06-05T07:02:45.051Z,18.00
2018-06-05T07:05:12.807Z,18.00
2018-06-05T07:07:40.470Z,18.00
2018-06-05T07:10:08.150Z,18.10
2018-06-05T07:12:35.831Z,18.10
2018-06-05T07:15:03.551Z,18.20
2018-06-05T07:17:31.221Z,18.20
2018-06-05T07:19:58.861Z,18.20
2018-06-05T07:24:54.074Z,18.10
2018-06-05T07:27:22.818Z,18.10
2018-06-05T07:29:50.536Z,18.20
2018-06-05T07:34:45.745Z,18.40
2018-06-05T07:37:13.435Z,18.30
2018-06-05T07:39:41.074Z,18.40
2018-06-05T07:42:08.727Z,18.50
2018-06-05T07:44:36.406Z,18.40
2018-06-05T07:47:04.339Z,18.40
2018-06-05T07:49:32.001Z,18.50
2018-06-05T07:51:59.695Z,18.50
2018-06-05T07:54:27.387Z,18.50
2018-06-05T07:57:57.795Z,18.40
2018-06-05T08:00:25.459Z,18.40
2018-06-05T08:02:53.105Z,18.40
2018-06-05T08:05:20.771Z,18.30
2018-06-05T08:07:48.425Z,18.40
2018-06-05T08:10:16.099Z,18.40
2018-06-05T08:12:43.754Z,18.40
2018-06-05T08:15:11.436Z,18.40
2018-06-05T08:17:39.123Z,18.40
2018-06-05T08:20:06.846Z,18.40
2018-06-05T08:23:05.568Z,18.50
2018-06-05T08:25:33.239Z,18.50
2018-06-05T08:28:00.892Z,18.60
2018-06-05T08:30:28.559Z,18.60
2018-06-05T08:32:56.205Z,18.80
2018-06-05T08:40:18.944Z,18.60
2018-06-05T08:42:46.588Z,18.60
2018-06-05T08:45:14.303Z,18.60
2018-06-05T08:47:41.939Z,18.50
2018-06-05T08:50:09.620Z,18.50
2018-06-05T08:52:37.280Z,18.60
2018-06-05T08:55:05.158Z,18.80
2018-06-05T08:57:32.811Z,18.90
2018-06-05T09:00:00.622Z,18.90
2018-06-05T09:02:28.248Z,19.00
2018-06-05T09:04:55.893Z,19.10
2018-06-05T09:07:23.558Z,19.00
2018-06-05T09:09:51.236Z,18.90
2018-06-05T09:12:18.882Z,18.80
2018-06-05T09:14:46.543Z,18.90
2018-06-05T09:17:14.199Z,19.00
2018-06-05T09:19:41.891Z,19.10
2018-06-05T09:22:09.551Z,19.30
2018-06-05T09:24:37.202Z,19.20
2018-06-05T09:27:04.861Z,19.40
2018-06-05T09:29:32.528Z,19.40
2018-06-05T09:32:00.188Z,19.30
2018-06-05T09:34:27.862Z,19.20
2018-06-05T09:36:55.522Z,19.30
2018-06-05T09:39:23.184Z,19.10
2018-06-05T09:41:50.840Z,19.10
2018-06-05T09:44:18.629Z,19.10
2018-06-05T09:46:46.358Z,19.10
2018-06-05T09:49:14.014Z,19.00
2018-06-05T09:51:41.699Z,19.10
2018-06-05T09:54:09.352Z,19.10
2018-06-05T09:56:37.064Z,19.20
2018-06-05T09:59:04.806Z,19.20
2018-06-05T10:01:32.481Z,19.20
2018-06-05T10:04:00.155Z,19.00
2018-06-05T10:06:27.804Z,19.00
2018-06-05T10:08:55.479Z,19.20
2018-06-05T10:11:23.155Z,19.20
2018-06-05T10:13:50.786Z,19.30
2018-06-05T10:16:18.592Z,19.60
2018-06-05T10:18:46.258Z,19.70
2018-06-05T10:21:13.911Z,19.70
2018-06-05T10:23:41.560Z,19.80
2018-06-05T10:26:09.238Z,19.70
2018-06-05T10:28:36.904Z,19.70
2018-06-05T10:31:04.646Z,19.70
2018-06-05T10:33:32.332Z,19.70
2018-06-05T10:36:00.070Z,19.60
2018-06-05T10:38:27.728Z,19.50
2018-06-05T10:40:55.404Z,19.50
2018-06-05T10:43:23.089Z,19.60
2018-06-05T10:45:50.773Z,19.80
2018-06-05T10:48:18.600Z,19.90
2018-06-05T10:50:46.236Z,19.80
2018-06-05T10:53:13.891Z,19.60
2018-06-05T10:55:41.596Z,19.80
2018-06-05T10:58:09.572Z,19.80
2018-06-05T11:00:37.237Z,19.80
2018-06-05T11:03:04.900Z,19.70
2018-06-05T11:05:32.560Z,19.90
2018-06-05T11:08:00.202Z,19.90
2018-06-05T11:10:27.914Z,19.90
2018-06-05T11:15:23.224Z,20.20
2018-06-05T11:17:50.896Z,20.10
2018-06-05T11:20:18.581Z,20.10
2018-06-05T11:22:46.264Z,19.80
2018-06-05T11:25:13.924Z,19.70
2018-06-05T11:27:41.586Z,19.80
2018-06-05T11:30:09.255Z,19.90
2018-06-05T11:32:36.900Z,20.00
2018-06-05T11:35:04.628Z,19.80
2018-06-05T11:37:32.278Z,19.90
2018-06-05T11:39:59.908Z,19.90
2018-06-05T11:42:27.564Z,20.00
2018-06-05T11:44:55.227Z,19.80
2018-06-05T11:47:22.887Z,19.70
2018-06-05T11:49:50.568Z,19.60
2018-06-05T11:52:18.214Z,19.60
2018-06-05T11:54:45.850Z,19.60
2018-06-05T11:57:13.494Z,19.70
2018-06-05T11:59:41.194Z,19.70
2018-06-05T12:02:08.942Z,19.80
2018-06-05T12:04:36.665Z,19.80
2018-06-05T12:07:04.348Z,19.90
2018-06-05T12:09:32.010Z,19.70
2018-06-05T12:11:59.669Z,19.70
2018-06-05T12:14:27.374Z,19.70
2018-06-05T12:16:55.052Z,19.60
2018-06-05T12:19:22.729Z,19.50
2018-06-05T12:21:50.372Z,19.70
2018-06-05T12:24:18.194Z,19.70
2018-06-05T12:26:47.017Z,19.70
2018-06-05T12:29:14.746Z,19.80
2018-06-05T12:31:42.486Z,19.90
2018-06-05T12:34:10.193Z,20.20
2018-06-05T12:36:38.045Z,20.00
2018-06-05T12:39:07.363Z,20.00
2018-06-05T12:41:35.082Z,19.90
2018-06-05T12:44:03.401Z,19.90
2018-06-05T12:46:31.105Z,20.00
2018-06-05T12:49:00.363Z,20.10
2018-06-05T12:51:28.831Z,20.40
2018-06-05T12:53:56.533Z,20.30
2018-06-05T12:56:24.354Z,20.60
2018-06-05T12:58:52.096Z,20.60
2018-06-05T13:01:19.860Z,20.90
2018-06-05T13:03:47.569Z,21.10
2018-06-05T13:06:15.234Z,21.40
2018-06-05T13:08:42.933Z,20.70
2018-06-05T13:11:10.586Z,20.40
2018-06-05T13:13:38.376Z,20.50
2018-06-05T13:16:06.037Z,20.60
2018-06-05T13:18:34.352Z,20.60
2018-06-05T13:21:02.136Z,21.10
2018-06-05T13:23:29.802Z,21.60
2018-06-05T13:25:57.462Z,21.60
2018-06-05T13:28:25.123Z,21.10
2018-06-05T13:30:52.780Z,21.00
2018-06-05T13:33:20.476Z,21.20
2018-06-05T13:35:48.149Z,21.10
2018-06-05T13:38:15.808Z,21.20
2018-06-05T13:40:43.526Z,21.60
2018-06-05T13:43:11.184Z,21.50
2018-06-05T13:45:38.860Z,21.20
2018-06-05T13:48:06.517Z,21.50
2018-06-05T13:50:34.180Z,21.70
2018-06-05T13:53:01.816Z,21.80
2018-06-05T13:55:29.540Z,21.90
2018-06-05T13:57:57.239Z,22.20
2018-06-05T14:00:24.911Z,21.80
2018-06-05T14:02:52.596Z,21.80
2018-06-05T14:05:22.957Z,21.80
2018-06-05T14:07:51.208Z,21.40
2018-06-05T14:10:19.506Z,21.40
2018-06-05T14:12:47.167Z,21.40
2018-06-05T14:15:17.605Z,21.60
2018-06-05T14:17:45.827Z,21.70
2018-06-05T14:20:13.484Z,21.70
2018-06-05T14:22:41.149Z,21.80
2018-06-05T14:25:08.872Z,21.80
2018-06-05T14:30:04.748Z,21.70
2018-06-05T14:32:32.430Z,21.90
2018-06-05T14:35:00.110Z,21.80
2018-06-05T14:37:27.809Z,21.80
2018-06-05T14:39:56.102Z,21.80
2018-06-05T14:42:23.898Z,21.70
2018-06-05T14:44:51.597Z,21.70
2018-06-05T14:47:19.252Z,21.70
2018-06-05T14:49:46.896Z,21.70
2018-06-05T14:52:14.558Z,21.80
2018-06-05T14:54:42.245Z,21.70
2018-06-05T14:57:09.903Z,21.60
2018-06-05T14:59:37.549Z,21.80
2018-06-05T15:02:05.393Z,22.00
2018-06-05T15:04:33.104Z,21.90
2018-06-05T15:07:00.790Z,21.80
2018-06-05T15:09:28.488Z,21.80
2018-06-05T15:14:23.729Z,21.40
2018-06-05T15:16:51.394Z,21.30
2018-06-05T15:19:19.080Z,21.60
2018-06-05T15:21:46.788Z,21.80
2018-06-05T15:24:14.480Z,22.00
2018-06-05T15:26:44.426Z,22.00
2018-06-05T15:29:12.463Z,22.00
2018-06-05T15:31:40.448Z,21.90
2018-06-05T15:34:08.572Z,22.10
2018-06-05T15:36:36.924Z,22.20
2018-06-05T15:39:07.286Z,22.20
2018-06-05T15:41:35.100Z,22.20
2018-06-05T15:44:03.677Z,22.10
2018-06-05T15:46:31.508Z,21.80
2018-06-05T15:48:59.356Z,21.90
2018-06-05T15:51:27.063Z,21.80
2018-06-05T15:53:54.801Z,21.80
2018-06-05T15:56:22.518Z,21.70
2018-06-05T15:58:50.180Z,21.80
2018-06-05T16:01:17.907Z,21.70
2018-06-05T16:03:45.618Z,21.60
2018-06-05T16:06:13.332Z,21.50
2018-06-05T16:08:41.030Z,21.70
2018-06-05T16:11:08.751Z,22.00
2018-06-05T16:13:36.454Z,22.30
2018-06-05T16:16:04.801Z,22.40
2018-06-05T16:18:32.487Z,22.40
2018-06-05T16:21:00.180Z,22.20
2018-06-05T16:23:27.852Z,21.80
2018-06-05T16:25:55.537Z,21.80
2018-06-05T16:28:23.226Z,21.60
2018-06-05T16:30:50.911Z,21.40
2018-06-05T16:33:18.599Z,21.40
2018-06-05T16:35:46.346Z,21.40
2018-06-05T16:38:14.062Z,21.70
2018-06-05T16:40:41.754Z,22.20
2018-06-05T16:43:09.638Z,22.30
2018-06-05T16:45:37.335Z,22.30
2018-06-05T16:48:07.065Z,22.20
2018-06-05T16:50:34.794Z,22.00
2018-06-05T16:53:02.489Z,21.60
2018-06-05T16:55:30.190Z,21.30
2018-06-05T16:57:57.865Z,21.00
2018-06-05T17:00:25.561Z,20.90
2018-06-05T17:02:53.238Z,20.90
2018-06-05T17:05:20.951Z,20.90
2018-06-05T17:07:49.748Z,20.90
2018-06-05T17:10:17.448Z,20.90
2018-06-05T17:12:46.963Z,21.10
2018-06-05T17:15:14.800Z,21.10
2018-06-05T17:17:42.521Z,21.10
2018-06-05T17:20:10.251Z,21.20
2018-06-05T17:22:39.362Z,21.20
2018-06-05T17:25:07.073Z,21.20
2018-06-05T17:27:41.718Z,21.20
2018-06-05T17:30:09.428Z,21.10
2018-06-05T17:32:41.100Z,21.10
2018-06-05T17:35:09.143Z,21.00
2018-06-05T17:37:36.925Z,21.00
2018-06-05T17:40:04.691Z,21.00
2018-06-05T17:42:32.638Z,20.90
2018-06-05T17:45:00.350Z,20.90
2018-06-05T17:47:28.123Z,20.90
2018-06-05T17:49:55.874Z,20.90
2018-06-05T17:52:23.685Z,20.90
2018-06-05T17:54:51.403Z,20.80
2018-06-05T17:57:19.151Z,20.70
2018-06-05T17:59:46.910Z,20.70
2018-06-05T18:02:14.733Z,20.60
2018-06-05T18:04:42.521Z,20.60
2018-06-05T18:09:39.057Z,20.60
2018-06-05T18:12:06.775Z,20.50
2018-06-05T18:14:34.539Z,20.50
2018-06-05T18:17:04.517Z,20.50
2018-06-05T18:19:32.398Z,20.40
2018-06-05T18:22:00.145Z,20.40
2018-06-05T18:24:28.008Z,20.30
2018-06-05T18:26:55.957Z,20.30
2018-06-05T18:29:23.700Z,20.20
2018-06-05T18:31:51.411Z,20.20
2018-06-05T18:34:19.536Z,20.20
2018-06-05T18:36:47.435Z,20.20
2018-06-05T18:41:42.772Z,20.10
2018-06-05T18:44:10.673Z,20.10
2018-06-05T18:46:41.423Z,20.00
2018-06-05T18:49:09.211Z,20.00
2018-06-05T18:51:36.999Z,19.90
2018-06-05T18:54:04.880Z,19.80
2018-06-05T18:56:32.819Z,19.80
2018-06-05T18:59:01.261Z,19.80
2018-06-05T19:01:29.045Z,19.60
2018-06-05T19:03:56.847Z,19.60
2018-06-05T19:06:24.593Z,19.50
2018-06-05T19:08:53.131Z,19.50
2018-06-05T19:11:20.834Z,19.40
2018-06-05T19:13:48.625Z,19.30
2018-06-05T19:18:44.048Z,19.30
2018-06-05T19:21:11.826Z,19.20
2018-06-05T19:23:39.715Z,19.20
2018-06-05T19:26:07.509Z,19.10
2018-06-05T19:28:35.238Z,19.00
2018-06-05T19:31:03.659Z,19.00
2018-06-05T19:33:32.139Z,18.90
2018-06-05T19:35:59.891Z,18.80
2018-06-05T19:38:28.214Z,18.80
2018-06-05T19:40:55.993Z,18.70
2018-06-05T19:43:24.081Z,18.70
2018-06-05T19:45:51.807Z,18.60
2018-06-05T19:48:19.924Z,18.50
2018-06-05T19:50:47.729Z,18.50
2018-06-05T19:53:15.471Z,18.40
2018-06-05T19:55:43.284Z,18.40
2018-06-05T19:58:11.601Z,18.30
2018-06-05T20:00:39.702Z,18.20
2018-06-05T20:03:08.208Z,18.20
2018-06-05T20:05:36.094Z,18.10
2018-06-05T20:08:03.921Z,18.10
2018-06-05T20:10:31.661Z,18.10
2018-06-05T20:12:59.449Z,18.10
2018-06-05T20:15:27.172Z,18.00
2018-06-05T20:17:54.922Z,17.90
2018-06-05T20:20:22.715Z,17.90
2018-06-05T20:22:50.412Z,17.80
2018-06-05T20:25:18.146Z,17.70
2018-06-05T20:27:46.405Z,17.70
2018-06-05T20:30:14.109Z,17.50
2018-06-05T20:32:41.924Z,17.50
2018-06-05T20:35:09.631Z,17.50
2018-06-05T20:37:37.532Z,17.40
2018-06-05T20:40:05.284Z,17.40
2018-06-05T20:42:33.050Z,17.40
2018-06-05T20:45:00.934Z,17.30
2018-06-05T20:47:33.431Z,17.30
2018-06-05T20:50:01.355Z,17.20
2018-06-05T20:52:29.150Z,17.20
2018-06-05T20:54:57.020Z,17.20
2018-06-05T20:57:24.880Z,17.10
2018-06-05T20:59:52.992Z,17.10
2018-06-05T21:02:20.744Z,17.00
2018-06-05T21:04:50.092Z,17.00
2018-06-05T21:09:45.478Z,17.00
2018-06-05T21:12:13.780Z,17.00
2018-06-05T21:14:41.528Z,17.00
2018-06-05T21:17:09.278Z,16.90
2018-06-05T21:19:37.036Z,16.80
2018-06-05T21:22:05.027Z,16.70
2018-06-05T21:24:32.800Z,16.70
2018-06-05T21:27:00.569Z,16.70
2018-06-05T21:29:28.316Z,16.80
2018-06-05T21:31:56.394Z,16.80
2018-06-05T21:34:24.140Z,16.80
2018-06-05T21:36:51.935Z,16.80
2018-06-05T21:39:19.670Z,16.80
2018-06-05T21:41:47.492Z,16.80
2018-06-05T21:44:18.571Z,16.80
2018-06-05T21:46:46.424Z,16.80
2018-06-05T21:49:14.226Z,16.80
2018-06-05T21:51:42.048Z,16.80
2018-06-05T21:54:10.005Z,16.80
2018-06-05T21:56:38.566Z,16.80
2018-06-05T21:59:06.538Z,16.70
2018-06-05T22:01:34.285Z,16.70
2018-06-05T22:04:02.054Z,16.70
2018-06-05T22:06:30.460Z,16.60
2018-06-05T22:08:59.610Z,16.60
2018-06-05T22:11:28.206Z,16.60
2018-06-05T22:13:56.628Z,16.50
2018-06-05T22:16:24.852Z,16.40
2018-06-05T22:18:52.642Z,16.40
2018-06-05T22:21:20.438Z,16.30
2018-06-05T22:23:48.340Z,16.30
2018-06-05T22:26:16.104Z,16.30
2018-06-05T22:28:44.118Z,16.30
2018-06-05T22:31:11.908Z,16.30
2018-06-05T22:33:40.693Z,16.30
2018-06-05T22:36:09.472Z,16.20
2018-06-05T22:38:37.438Z,16.20
2018-06-05T22:41:07.057Z,16.20
2018-06-05T22:43:34.839Z,16.20
2018-06-05T22:46:03.672Z,16.20
2018-06-05T22:58:12.649Z,16.10
2018-06-05T23:00:41.250Z,16.00
2018-06-05T23:03:09.053Z,15.90
2018-06-05T23:05:37.040Z,15.90
2018-06-05T23:13:01.106Z,15.80
2018-06-05T23:15:28.864Z,15.80
2018-06-05T23:17:56.752Z,15.70
2018-06-05T23:20:24.711Z,15.70
2018-06-05T23:22:52.698Z,15.70
2018-06-05T23:25:20.574Z,15.60
2018-06-05T23:27:48.420Z,15.60
2018-06-05T23:30:16.890Z,15.50
2018-06-05T23:42:29.760Z,15.40
2018-06-05T23:44:58.182Z,15.20
2018-06-05T23:47:26.204Z,15.20
2018-06-05T23:49:54.112Z,15.20
2018-06-05T23:52:22.226Z,15.20
2018-06-05T23:54:50.410Z,15.20
2018-06-05T23:57:18.554Z,15.20
2018-06-05T23:59:48.236Z,15.20
